Terminal Aerodrome Forecast
Issued by NWS Sioux Falls, SD

Home | Current Version | Previous Version | Text Only | Print | Product List | Glossary On
Versions: 1 2 3 4 5 6 7 8 9 10 11 12 13 14 15 16 17 18 19 20 21 22 23 24 25 26 27 28 29 30 31 32 33 34
000
FTUS43 KFSD 210803 AAA
TAFSUX
TAF AMD
KSUX 210803Z 2108/2206 16008KT 1/2SM FG OVC003
     FM211600 17013G19KT 3SM BR OVC005
     FM212000 18016G23KT 4SM BR OVC008
     FM220300 16018G25KT 2SM BR OVC006=

USA.gov is the U.S. government's official web portal to all federal, state and local government web resources and services.